sensor_id;sensor_type;location;lat;lon;timestamp;noise_LAeq;noise_LA_min;noise_LA_max;noise_LA01;noise_LA95
66335;Laerm;53138;51.496;6.410;2023-06-24T00:00:05;32.02;30.35;34.97;;
66335;Laerm;53138;51.496;6.410;2023-06-24T00:00:17;32.29;29.04;45.78;;
66335;Laerm;53138;51.496;6.410;2023-06-24T00:00:29;34.21;30.31;41.39;;
66335;Laerm;53138;51.496;6.410;2023-06-24T00:00:39;33.48;30.46;37.43;;
66335;Laerm;53138;51.496;6.410;2023-06-24T00:00:49;34.26;30.47;40.98;;
66335;Laerm;53138;51.496;6.410;2023-06-24T00:01:02;34.31;30.79;41.76;;
66335;Laerm;53138;51.496;6.410;2023-06-24T00:01:12;35.39;32.15;38.86;;
66335;Laerm;53138;51.496;6.410;2023-06-24T00:01:23;38.23;33.49;41.98;;
66335;Laerm;53138;51.496;6.410;2023-06-24T00:01:33;37.27;32.86;44.25;;
66335;Laerm;53138;51.496;6.410;2023-06-24T00:01:44;32.66;30.34;36.06;;
66335;Laerm;53138;51.496;6.410;2023-06-24T00:01:54;31.76;29.51;34.55;;
66335;Laerm;53138;51.496;6.410;2023-06-24T00:02:05;31.88;29.44;34.75;;
66335;Laerm;53138;51.496;6.410;2023-06-24T00:02:16;31.79;29.37;34.51;;
66335;Laerm;53138;51.496;6.410;2023-06-24T00:02:26;31.71;29.42;35.51;;
66335;Laerm;53138;51.496;6.410;2023-06-24T00:02:36;32.02;29.69;36.42;;
66335;Laerm;53138;51.496;6.410;2023-06-24T00:02:47;31.56;29.42;34.28;;
66335;Laerm;53138;51.496;6.410;2023-06-24T00:02:57;31.40;29.22;34.43;;
66335;Laerm;53138;51.496;6.410;2023-06-24T00:03:12;31.64;29.19;34.42;;
66335;Laerm;53138;51.496;6.410;2023-06-24T00:03:26;31.48;29.27;34.71;;
66335;Laerm;53138;51.496;6.410;2023-06-24T00:03:37;30.02;28.41;33.36;;
66335;Laerm;53138;51.496;6.410;2023-06-24T00:03:47;32.23;29.25;35.95;;
66335;Laerm;53138;51.496;6.410;2023-06-24T00:03:58;37.14;32.99;41.37;;
66335;Laerm;53138;51.496;6.410;2023-06-24T00:04:08;43.67;34.90;50.50;;
66335;Laerm;53138;51.496;6.410;2023-06-24T00:04:18;33.87;30.98;36.49;;
66335;Laerm;53138;51.496;6.410;2023-06-24T00:04:30;35.78;30.85;42.96;;
66335;Laerm;53138;51.496;6.410;2023-06-24T00:04:41;32.99;29.92;35.52;;
66335;Laerm;53138;51.496;6.410;2023-06-24T00:04:51;34.92;32.01;39.87;;
66335;Laerm;53138;51.496;6.410;2023-06-24T00:05:02;33.83;30.98;37.15;;
66335;Laerm;53138;51.496;6.410;2023-06-24T00:05:13;38.31;33.22;42.62;;
66335;Laerm;53138;51.496;6.410;2023-06-24T00:05:24;38.88;35.02;41.71;;
66335;Laerm;53138;51.496;6.410;2023-06-24T00:05:34;38.07;34.05;42.67;;
66335;Laerm;53138;51.496;6.410;2023-06-24T00:05:44;39.15;33.14;47.85;;
66335;Laerm;53138;51.496;6.410;2023-06-24T00:05:59;38.14;32.67;42.70;;
66335;Laerm;53138;51.496;6.410;2023-06-24T00:06:13;37.15;32.61;41.11;;
66335;Laerm;53138;51.496;6.410;2023-06-24T00:06:28;37.53;33.54;42.04;;
66335;Laerm;53138;51.496;6.410;2023-06-24T00:06:38;37.99;34.24;43.66;;
66335;Laerm;53138;51.496;6.410;2023-06-24T00:06:49;32.98;30.56;35.80;;
66335;Laerm;53138;51.496;6.410;2023-06-24T00:07:02;32.55;30.08;43.71;;
66335;Laerm;53138;51.496;6.410;2023-06-24T00:07:12;32.14;29.40;35.19;;
66335;Laerm;53138;51.496;6.410;2023-06-24T00:07:22;32.04;29.84;36.85;;
66335;Laerm;53138;51.496;6.410;2023-06-24T00:07:33;31.21;29.14;39.03;;
66335;Laerm;53138;51.496;6.410;2023-06-24T00:07:53;31.48;29.05;41.21;;
66335;Laerm;53138;51.496;6.410;2023-06-24T00:08:07;31.83;28.96;34.81;;
66335;Laerm;53138;51.496;6.410;2023-06-24T00:08:18;31.42;28.79;34.63;;
66335;Laerm;53138;51.496;6.410;2023-06-24T00:08:32;32.04;29.36;34.62;;
66335;Laerm;53138;51.496;6.410;2023-06-24T00:08:47;30.79;28.91;32.93;;
66335;Laerm;53138;51.496;6.410;2023-06-24T00:08:58;31.04;29.40;33.30;;
66335;Laerm;53138;51.496;6.410;2023-06-24T00:09:10;32.43;29.64;35.81;;
66335;Laerm;53138;51.496;6.410;2023-06-24T00:09:20;32.30;29.64;35.87;;
66335;Laerm;53138;51.496;6.410;2023-06-24T00:09:30;36.97;32.14;42.55;;
66335;Laerm;53138;51.496;6.410;2023-06-24T00:09:41;42.03;34.33;48.67;;
66335;Laerm;53138;51.496;6.410;2023-06-24T00:09:51;38.61;33.95;43.19;;
66335;Laerm;53138;51.496;6.410;2023-06-24T00:10:01;38.15;35.07;41.54;;
66335;Laerm;53138;51.496;6.410;2023-06-24T00:10:14;43.00;37.81;47.25;;
66335;Laerm;53138;51.496;6.410;2023-06-24T00:10:24;38.86;33.13;43.63;;
66335;Laerm;53138;51.496;6.410;2023-06-24T00:10:34;33.78;31.04;36.05;;
66335;Laerm;53138;51.496;6.410;2023-06-24T00:10:45;33.40;31.08;38.17;;
66335;Laerm;53138;51.496;6.410;2023-06-24T00:10:56;36.10;30.86;42.75;;
66335;Laerm;53138;51.496;6.410;2023-06-24T00:11:06;42.35;37.33;46.83;;
66335;Laerm;53138;51.496;6.410;2023-06-24T00:11:16;41.14;36.41;46.95;;
66335;Laerm;53138;51.496;6.410;2023-06-24T00:11:28;40.21;36.83;44.10;;
66335;Laerm;53138;51.496;6.410;2023-06-24T00:11:38;44.56;39.28;48.18;;
66335;Laerm;53138;51.496;6.410;2023-06-24T00:11:48;40.90;36.57;48.01;;
66335;Laerm;53138;51.496;6.410;2023-06-24T00:11:58;36.69;33.99;39.74;;
66335;Laerm;53138;51.496;6.410;2023-06-24T00:12:09;36.95;33.61;39.63;;
66335;Laerm;53138;51.496;6.410;2023-06-24T00:12:19;41.04;35.19;47.34;;
66335;Laerm;53138;51.496;6.410;2023-06-24T00:12:30;39.93;33.45;45.29;;
66335;Laerm;53138;51.496;6.410;2023-06-24T00:12:40;33.21;31.12;36.06;;
66335;Laerm;53138;51.496;6.410;2023-06-24T00:12:51;33.34;30.75;38.13;;
66335;Laerm;53138;51.496;6.410;2023-06-24T00:13:01;38.22;32.23;42.70;;
66335;Laerm;53138;51.496;6.410;2023-06-24T00:13:12;33.72;31.02;36.89;;
66335;Laerm;53138;51.496;6.410;2023-06-24T00:13:23;35.45;31.76;39.12;;
66335;Laerm;53138;51.496;6.410;2023-06-24T00:13:33;39.17;34.28;43.23;;
66335;Laerm;53138;51.496;6.410;2023-06-24T00:13:43;34.23;31.03;36.37;;
66335;Laerm;53138;51.496;6.410;2023-06-24T00:13:54;32.78;31.00;35.92;;
66335;Laerm;53138;51.496;6.410;2023-06-24T00:14:04;37.04;32.14;42.72;;
66335;Laerm;53138;51.496;6.410;2023-06-24T00:14:16;39.89;34.81;47.02;;
66335;Laerm;53138;51.496;6.410;2023-06-24T00:14:27;41.71;37.07;46.12;;
66335;Laerm;53138;51.496;6.410;2023-06-24T00:14:37;45.92;38.68;52.12;;
66335;Laerm;53138;51.496;6.410;2023-06-24T00:14:47;42.21;39.05;45.69;;
66335;Laerm;53138;51.496;6.410;2023-06-24T00:14:57;40.17;36.38;45.23;;
66335;Laerm;53138;51.496;6.410;2023-06-24T00:15:08;37.38;33.43;43.33;;
66335;Laerm;53138;51.496;6.410;2023-06-24T00:15:22;37.00;33.95;41.17;;
66335;Laerm;53138;51.496;6.410;2023-06-24T00:15:32;34.73;31.71;37.41;;
66335;Laerm;53138;51.496;6.410;2023-06-24T00:15:42;32.23;29.73;34.93;;
66335;Laerm;53138;51.496;6.410;2023-06-24T00:15:52;31.21;29.53;33.21;;
66335;Laerm;53138;51.496;6.410;2023-06-24T00:16:03;31.51;29.51;33.17;;
66335;Laerm;53138;51.496;6.410;2023-06-24T00:16:13;31.17;29.71;35.41;;
66335;Laerm;53138;51.496;6.410;2023-06-24T00:16:24;32.09;29.82;34.89;;
66335;Laerm;53138;51.496;6.410;2023-06-24T00:16:37;30.98;28.91;33.26;;
66335;Laerm;53138;51.496;6.410;2023-06-24T00:16:47;31.73;29.10;34.43;;
66335;Laerm;53138;51.496;6.410;2023-06-24T00:17:01;36.26;31.61;42.19;;
66335;Laerm;53138;51.496;6.410;2023-06-24T00:17:11;36.38;32.18;42.26;;
66335;Laerm;53138;51.496;6.410;2023-06-24T00:17:21;32.14;29.61;37.16;;
66335;Laerm;53138;51.496;6.410;2023-06-24T00:17:31;30.74;29.00;33.00;;
66335;Laerm;53138;51.496;6.410;2023-06-24T00:17:42;30.59;28.82;32.67;;
66335;Laerm;53138;51.496;6.410;2023-06-24T00:17:52;29.93;28.49;31.47;;
66335;Laerm;53138;51.496;6.410;2023-06-24T00:18:02;29.77;27.91;31.95;;
66335;Laerm;53138;51.496;6.410;2023-06-24T00:18:16;38.77;30.16;47.19;;
66335;Laerm;53138;51.496;6.410;2023-06-24T00:18:26;33.59;30.72;37.33;;
66335;Laerm;53138;51.496;6.410;2023-06-24T00:18:39;31.10;28.85;34.30;;
66335;Laerm;53138;51.496;6.410;2023-06-24T00:18:51;30.44;28.02;32.76;;
66335;Laerm;53138;51.496;6.410;2023-06-24T00:19:03;32.04;29.94;35.04;;
66335;Laerm;53138;51.496;6.410;2023-06-24T00:19:13;31.08;28.93;33.03;;
66335;Laerm;53138;51.496;6.410;2023-06-24T00:19:24;30.73;28.52;32.72;;
66335;Laerm;53138;51.496;6.410;2023-06-24T00:19:34;32.82;30.06;35.99;;
66335;Laerm;53138;51.496;6.410;2023-06-24T00:19:44;39.17;33.75;44.95;;
66335;Laerm;53138;51.496;6.410;2023-06-24T00:19:55;34.24;30.22;41.43;;
66335;Laerm;53138;51.496;6.410;2023-06-24T00:20:05;33.32;30.26;38.18;;
66335;Laerm;53138;51.496;6.410;2023-06-24T00:20:17;35.93;32.49;41.15;;
66335;Laerm;53138;51.496;6.410;2023-06-24T00:20:30;41.41;33.63;46.39;;
66335;Laerm;53138;51.496;6.410;2023-06-24T00:20:40;41.31;36.73;48.00;;
66335;Laerm;53138;51.496;6.410;2023-06-24T00:20:53;38.67;33.23;43.25;;
66335;Laerm;53138;51.496;6.410;2023-06-24T00:21:03;36.99;32.84;40.84;;
66335;Laerm;53138;51.496;6.410;2023-06-24T00:21:13;42.16;36.78;48.33;;
66335;Laerm;53138;51.496;6.410;2023-06-24T00:21:27;42.16;37.33;45.86;;
66335;Laerm;53138;51.496;6.410;2023-06-24T00:21:39;41.01;35.65;46.20;;
66335;Laerm;53138;51.496;6.410;2023-06-24T00:21:51;37.96;33.17;43.02;;
66335;Laerm;53138;51.496;6.410;2023-06-24T00:22:01;34.50;29.71;39.88;;
66335;Laerm;53138;51.496;6.410;2023-06-24T00:22:13;30.46;28.82;32.30;;
66335;Laerm;53138;51.496;6.410;2023-06-24T00:22:23;30.15;28.58;32.71;;
66335;Laerm;53138;51.496;6.410;2023-06-24T00:22:34;29.80;28.34;36.49;;
66335;Laerm;53138;51.496;6.410;2023-06-24T00:22:44;32.19;28.34;38.79;;
66335;Laerm;53138;51.496;6.410;2023-06-24T00:22:58;38.02;31.13;43.63;;
66335;Laerm;53138;51.496;6.410;2023-06-24T00:23:08;32.63;29.64;35.24;;
66335;Laerm;53138;51.496;6.410;2023-06-24T00:23:21;30.78;29.06;32.54;;
66335;Laerm;53138;51.496;6.410;2023-06-24T00:23:34;29.62;27.89;31.39;;
66335;Laerm;53138;51.496;6.410;2023-06-24T00:23:45;33.18;29.59;37.10;;
66335;Laerm;53138;51.496;6.410;2023-06-24T00:23:56;36.39;31.50;41.21;;
66335;Laerm;53138;51.496;6.410;2023-06-24T00:24:06;33.91;30.17;37.03;;
66335;Laerm;53138;51.496;6.410;2023-06-24T00:24:17;34.26;31.58;37.52;;
66335;Laerm;53138;51.496;6.410;2023-06-24T00:24:27;33.25;30.99;35.62;;
66335;Laerm;53138;51.496;6.410;2023-06-24T00:24:38;32.78;29.91;35.78;;
66335;Laerm;53138;51.496;6.410;2023-06-24T00:24:49;33.27;30.30;35.81;;
66335;Laerm;53138;51.496;6.410;2023-06-24T00:25:00;35.33;32.90;39.20;;
66335;Laerm;53138;51.496;6.410;2023-06-24T00:25:10;34.93;30.88;39.74;;
66335;Laerm;53138;51.496;6.410;2023-06-24T00:25:21;32.81;30.63;35.72;;
66335;Laerm;53138;51.496;6.410;2023-06-24T00:25:31;36.32;31.36;43.61;;
66335;Laerm;53138;51.496;6.410;2023-06-24T00:25:41;38.15;33.59;42.13;;
66335;Laerm;53138;51.496;6.410;2023-06-24T00:25:53;33.94;30.60;38.86;;
66335;Laerm;53138;51.496;6.410;2023-06-24T00:26:04;34.26;30.75;36.82;;
66335;Laerm;53138;51.496;6.410;2023-06-24T00:26:14;34.04;31.12;37.43;;
66335;Laerm;53138;51.496;6.410;2023-06-24T00:26:25;32.01;29.60;34.93;;
66335;Laerm;53138;51.496;6.410;2023-06-24T00:26:35;34.03;31.03;38.03;;
66335;Laerm;53138;51.496;6.410;2023-06-24T00:26:45;39.82;34.86;46.11;;
66335;Laerm;53138;51.496;6.410;2023-06-24T00:26:56;38.39;30.78;44.65;;
66335;Laerm;53138;51.496;6.410;2023-06-24T00:27:06;31.65;29.97;34.00;;
66335;Laerm;53138;51.496;6.410;2023-06-24T00:27:17;30.83;29.02;33.84;;
66335;Laerm;53138;51.496;6.410;2023-06-24T00:27:27;31.68;29.89;33.89;;
66335;Laerm;53138;51.496;6.410;2023-06-24T00:27:37;34.62;31.40;37.51;;
66335;Laerm;53138;51.496;6.410;2023-06-24T00:27:47;39.13;32.56;44.36;;
66335;Laerm;53138;51.496;6.410;2023-06-24T00:27:57;32.93;29.70;37.57;;
66335;Laerm;53138;51.496;6.410;2023-06-24T00:28:08;35.36;30.03;46.64;;
66335;Laerm;53138;51.496;6.410;2023-06-24T00:28:18;42.09;33.89;48.25;;
66335;Laerm;53138;51.496;6.410;2023-06-24T00:28:28;39.96;36.16;43.64;;
66335;Laerm;53138;51.496;6.410;2023-06-24T00:28:39;34.57;29.66;43.94;;
66335;Laerm;53138;51.496;6.410;2023-06-24T00:28:49;30.75;28.86;33.27;;
66335;Laerm;53138;51.496;6.410;2023-06-24T00:28:59;30.17;28.60;31.76;;
66335;Laerm;53138;51.496;6.410;2023-06-24T00:29:09;33.52;30.19;37.65;;
66335;Laerm;53138;51.496;6.410;2023-06-24T00:29:20;40.95;32.82;47.73;;
66335;Laerm;53138;51.496;6.410;2023-06-24T00:29:30;32.50;29.71;34.98;;
66335;Laerm;53138;51.496;6.410;2023-06-24T00:29:40;29.91;28.47;34.94;;
66335;Laerm;53138;51.496;6.410;2023-06-24T00:29:50;30.35;28.50;33.51;;
66335;Laerm;53138;51.496;6.410;2023-06-24T00:30:00;31.70;29.28;37.66;;
66335;Laerm;53138;51.496;6.410;2023-06-24T00:30:11;31.52;29.13;34.67;;
66335;Laerm;53138;51.496;6.410;2023-06-24T00:30:22;32.27;29.33;36.03;;
66335;Laerm;53138;51.496;6.410;2023-06-24T00:30:32;33.99;30.92;38.57;;
66335;Laerm;53138;51.496;6.410;2023-06-24T00:30:42;37.84;33.17;44.09;;
66335;Laerm;53138;51.496;6.410;2023-06-24T00:30:53;38.06;32.00;42.22;;
66335;Laerm;53138;51.496;6.410;2023-06-24T00:31:03;35.30;31.99;39.85;;
66335;Laerm;53138;51.496;6.410;2023-06-24T00:31:13;32.39;30.05;35.36;;
66335;Laerm;53138;51.496;6.410;2023-06-24T00:31:24;30.51;29.00;32.66;;
66335;Laerm;53138;51.496;6.410;2023-06-24T00:31:34;31.79;29.38;35.43;;
66335;Laerm;53138;51.496;6.410;2023-06-24T00:31:45;34.94;31.52;39.88;;
66335;Laerm;53138;51.496;6.410;2023-06-24T00:31:55;39.12;31.74;44.92;;
66335;Laerm;53138;51.496;6.410;2023-06-24T00:32:05;32.76;30.84;35.34;;
66335;Laerm;53138;51.496;6.410;2023-06-24T00:32:16;32.11;29.64;34.24;;
66335;Laerm;53138;51.496;6.410;2023-06-24T00:32:26;31.02;29.46;34.77;;
66335;Laerm;53138;51.496;6.410;2023-06-24T00:32:36;30.77;28.61;33.81;;
66335;Laerm;53138;51.496;6.410;2023-06-24T00:32:46;30.35;28.52;33.58;;
66335;Laerm;53138;51.496;6.410;2023-06-24T00:32:57;30.06;28.03;36.55;;
66335;Laerm;53138;51.496;6.410;2023-06-24T00:33:07;29.72;28.15;34.39;;
66335;Laerm;53138;51.496;6.410;2023-06-24T00:33:20;30.61;28.05;33.88;;
66335;Laerm;53138;51.496;6.410;2023-06-24T00:33:31;31.20;28.97;33.68;;
66335;Laerm;53138;51.496;6.410;2023-06-24T00:33:46;30.73;28.83;33.43;;
66335;Laerm;53138;51.496;6.410;2023-06-24T00:33:56;31.02;29.08;33.64;;
66335;Laerm;53138;51.496;6.410;2023-06-24T00:34:07;30.89;29.40;33.77;;
66335;Laerm;53138;51.496;6.410;2023-06-24T00:34:17;31.51;29.41;34.25;;
66335;Laerm;53138;51.496;6.410;2023-06-24T00:34:30;31.35;28.62;35.01;;
66335;Laerm;53138;51.496;6.410;2023-06-24T00:34:40;30.38;28.87;33.11;;
66335;Laerm;53138;51.496;6.410;2023-06-24T00:34:53;32.72;28.63;36.41;;
66335;Laerm;53138;51.496;6.410;2023-06-24T00:35:08;42.97;34.98;48.76;;
66335;Laerm;53138;51.496;6.410;2023-06-24T00:35:18;37.43;32.26;43.85;;
66335;Laerm;53138;51.496;6.410;2023-06-24T00:35:28;31.79;29.73;36.03;;
66335;Laerm;53138;51.496;6.410;2023-06-24T00:35:41;30.29;28.45;35.62;;
66335;Laerm;53138;51.496;6.410;2023-06-24T00:35:52;36.37;28.77;52.05;;
66335;Laerm;53138;51.496;6.410;2023-06-24T00:36:03;31.93;30.10;35.92;;
66335;Laerm;53138;51.496;6.410;2023-06-24T00:36:13;32.14;30.07;35.22;;
66335;Laerm;53138;51.496;6.410;2023-06-24T00:36:23;31.95;30.14;34.28;;
66335;Laerm;53138;51.496;6.410;2023-06-24T00:36:33;31.71;29.83;34.39;;
66335;Laerm;53138;51.496;6.410;2023-06-24T00:36:47;32.11;29.53;37.59;;
66335;Laerm;53138;51.496;6.410;2023-06-24T00:36:57;34.92;30.82;40.93;;
66335;Laerm;53138;51.496;6.410;2023-06-24T00:37:08;35.38;32.57;38.73;;
66335;Laerm;53138;51.496;6.410;2023-06-24T00:37:18;37.19;31.14;44.30;;
66335;Laerm;53138;51.496;6.410;2023-06-24T00:37:28;33.55;30.24;45.68;;
66335;Laerm;53138;51.496;6.410;2023-06-24T00:37:38;32.84;30.15;36.05;;
66335;Laerm;53138;51.496;6.410;2023-06-24T00:37:48;42.22;31.74;52.34;;
66335;Laerm;53138;51.496;6.410;2023-06-24T00:37:59;43.21;35.37;50.42;;
66335;Laerm;53138;51.496;6.410;2023-06-24T00:38:09;37.78;30.43;50.92;;
66335;Laerm;53138;51.496;6.410;2023-06-24T00:38:20;31.20;28.82;42.44;;
66335;Laerm;53138;51.496;6.410;2023-06-24T00:38:30;30.67;28.64;33.41;;
66335;Laerm;53138;51.496;6.410;2023-06-24T00:38:42;31.25;29.44;34.86;;
66335;Laerm;53138;51.496;6.410;2023-06-24T00:38:52;31.18;28.97;35.23;;
66335;Laerm;53138;51.496;6.410;2023-06-24T00:39:02;30.72;28.97;34.14;;
66335;Laerm;53138;51.496;6.410;2023-06-24T00:39:13;31.63;29.63;34.69;;
66335;Laerm;53138;51.496;6.410;2023-06-24T00:39:23;33.15;30.21;38.70;;
66335;Laerm;53138;51.496;6.410;2023-06-24T00:39:34;33.85;30.27;41.36;;
66335;Laerm;53138;51.496;6.410;2023-06-24T00:39:44;33.68;31.04;36.61;;
66335;Laerm;53138;51.496;6.410;2023-06-24T00:39:54;35.96;31.96;40.91;;
66335;Laerm;53138;51.496;6.410;2023-06-24T00:40:05;38.22;33.79;43.85;;
66335;Laerm;53138;51.496;6.410;2023-06-24T00:40:16;40.04;36.97;43.47;;
66335;Laerm;53138;51.496;6.410;2023-06-24T00:40:26;38.03;32.93;42.60;;
66335;Laerm;53138;51.496;6.410;2023-06-24T00:40:37;37.82;34.65;40.94;;
66335;Laerm;53138;51.496;6.410;2023-06-24T00:40:47;37.79;32.99;46.28;;
66335;Laerm;53138;51.496;6.410;2023-06-24T00:40:58;33.02;29.51;37.82;;
66335;Laerm;53138;51.496;6.410;2023-06-24T00:41:08;30.34;28.59;33.46;;
66335;Laerm;53138;51.496;6.410;2023-06-24T00:41:19;33.12;30.70;35.63;;
66335;Laerm;53138;51.496;6.410;2023-06-24T00:41:31;33.06;30.29;36.46;;
66335;Laerm;53138;51.496;6.410;2023-06-24T00:41:41;33.29;29.90;37.81;;
66335;Laerm;53138;51.496;6.410;2023-06-24T00:41:52;36.31;32.37;42.05;;
66335;Laerm;53138;51.496;6.410;2023-06-24T00:42:03;33.95;31.69;37.51;;
66335;Laerm;53138;51.496;6.410;2023-06-24T00:42:13;36.84;31.15;42.78;;
66335;Laerm;53138;51.496;6.410;2023-06-24T00:42:23;35.73;31.87;40.41;;
66335;Laerm;53138;51.496;6.410;2023-06-24T00:42:33;32.49;29.42;35.37;;
66335;Laerm;53138;51.496;6.410;2023-06-24T00:42:44;32.57;30.24;36.15;;
66335;Laerm;53138;51.496;6.410;2023-06-24T00:42:55;32.99;29.68;36.83;;
66335;Laerm;53138;51.496;6.410;2023-06-24T00:43:06;30.98;29.20;32.55;;
66335;Laerm;53138;51.496;6.410;2023-06-24T00:43:16;34.90;29.67;40.86;;
66335;Laerm;53138;51.496;6.410;2023-06-24T00:43:26;34.69;30.96;39.79;;
66335;Laerm;53138;51.496;6.410;2023-06-24T00:43:37;34.84;29.67;49.85;;
66335;Laerm;53138;51.496;6.410;2023-06-24T00:43:48;30.85;28.76;36.29;;
66335;Laerm;53138;51.496;6.410;2023-06-24T00:43:59;30.33;28.41;32.93;;
66335;Laerm;53138;51.496;6.410;2023-06-24T00:44:09;30.15;28.66;32.60;;
66335;Laerm;53138;51.496;6.410;2023-06-24T00:44:20;30.81;28.71;33.55;;
66335;Laerm;53138;51.496;6.410;2023-06-24T00:44:30;30.26;28.51;32.42;;
66335;Laerm;53138;51.496;6.410;2023-06-24T00:44:40;30.04;28.41;32.67;;
66335;Laerm;53138;51.496;6.410;2023-06-24T00:44:51;29.75;28.07;31.88;;
66335;Laerm;53138;51.496;6.410;2023-06-24T00:45:01;29.90;27.98;32.78;;
66335;Laerm;53138;51.496;6.410;2023-06-24T00:45:14;29.83;28.31;31.83;;
66335;Laerm;53138;51.496;6.410;2023-06-24T00:45:28;30.71;28.30;37.08;;
66335;Laerm;53138;51.496;6.410;2023-06-24T00:45:40;30.45;28.40;35.58;;
66335;Laerm;53138;51.496;6.410;2023-06-24T00:45:51;31.40;28.77;37.18;;
66335;Laerm;53138;51.496;6.410;2023-06-24T00:46:03;31.56;28.49;37.98;;
66335;Laerm;53138;51.496;6.410;2023-06-24T00:46:13;31.62;28.25;38.31;;
66335;Laerm;53138;51.496;6.410;2023-06-24T00:46:25;33.01;29.52;36.75;;
66335;Laerm;53138;51.496;6.410;2023-06-24T00:46:36;33.49;30.72;36.32;;
66335;Laerm;53138;51.496;6.410;2023-06-24T00:46:46;31.43;29.63;40.54;;
66335;Laerm;53138;51.496;6.410;2023-06-24T00:46:57;31.60;29.09;34.86;;
66335;Laerm;53138;51.496;6.410;2023-06-24T00:47:07;34.27;30.38;38.86;;
66335;Laerm;53138;51.496;6.410;2023-06-24T00:47:18;41.12;33.73;47.96;;
66335;Laerm;53138;51.496;6.410;2023-06-24T00:47:28;36.99;32.31;44.15;;
66335;Laerm;53138;51.496;6.410;2023-06-24T00:47:40;33.88;29.51;39.30;;
66335;Laerm;53138;51.496;6.410;2023-06-24T00:47:51;30.11;28.56;33.21;;
66335;Laerm;53138;51.496;6.410;2023-06-24T00:48:01;30.20;28.34;31.93;;
66335;Laerm;53138;51.496;6.410;2023-06-24T00:48:13;30.36;28.50;31.92;;
66335;Laerm;53138;51.496;6.410;2023-06-24T00:48:23;30.69;28.70;32.92;;
66335;Laerm;53138;51.496;6.410;2023-06-24T00:48:34;30.44;28.22;32.86;;
66335;Laerm;53138;51.496;6.410;2023-06-24T00:48:44;30.71;28.75;32.97;;
66335;Laerm;53138;51.496;6.410;2023-06-24T00:48:55;30.75;28.87;33.46;;
66335;Laerm;53138;51.496;6.410;2023-06-24T00:49:06;30.72;28.94;33.87;;
66335;Laerm;53138;51.496;6.410;2023-06-24T00:49:16;30.61;28.47;32.81;;
66335;Laerm;53138;51.496;6.410;2023-06-24T00:49:26;29.61;28.42;31.31;;
66335;Laerm;53138;51.496;6.410;2023-06-24T00:49:36;29.86;28.59;31.40;;
66335;Laerm;53138;51.496;6.410;2023-06-24T00:49:46;31.75;28.74;34.38;;
66335;Laerm;53138;51.496;6.410;2023-06-24T00:49:57;33.64;30.58;37.48;;
66335;Laerm;53138;51.496;6.410;2023-06-24T00:50:07;38.55;32.69;43.83;;
66335;Laerm;53138;51.496;6.410;2023-06-24T00:50:18;34.48;31.03;40.27;;
66335;Laerm;53138;51.496;6.410;2023-06-24T00:50:28;34.19;31.09;37.02;;
66335;Laerm;53138;51.496;6.410;2023-06-24T00:50:38;34.40;31.03;39.83;;
66335;Laerm;53138;51.496;6.410;2023-06-24T00:50:52;33.48;29.88;39.19;;
66335;Laerm;53138;51.496;6.410;2023-06-24T00:51:02;35.21;31.84;40.63;;
66335;Laerm;53138;51.496;6.410;2023-06-24T00:51:12;35.00;31.89;37.92;;
66335;Laerm;53138;51.496;6.410;2023-06-24T00:51:23;37.17;32.47;41.83;;
66335;Laerm;53138;51.496;6.410;2023-06-24T00:51:44;39.57;32.44;46.54;;
66335;Laerm;53138;51.496;6.410;2023-06-24T00:52:00;35.45;31.12;40.65;;
66335;Laerm;53138;51.496;6.410;2023-06-24T00:52:11;32.84;30.68;35.57;;
66335;Laerm;53138;51.496;6.410;2023-06-24T00:52:25;32.25;29.50;35.67;;
66335;Laerm;53138;51.496;6.410;2023-06-24T00:52:35;33.03;29.99;35.60;;
66335;Laerm;53138;51.496;6.410;2023-06-24T00:52:47;32.54;30.25;35.42;;
66335;Laerm;53138;51.496;6.410;2023-06-24T00:52:59;32.05;29.16;38.84;;
66335;Laerm;53138;51.496;6.410;2023-06-24T00:53:09;32.27;29.60;35.51;;
66335;Laerm;53138;51.496;6.410;2023-06-24T00:53:19;34.78;31.20;43.88;;
66335;Laerm;53138;51.496;6.410;2023-06-24T00:53:34;38.87;33.47;43.45;;
66335;Laerm;53138;51.496;6.410;2023-06-24T00:53:45;39.01;33.31;44.93;;
66335;Laerm;53138;51.496;6.410;2023-06-24T00:53:55;36.64;32.64;41.08;;
66335;Laerm;53138;51.496;6.410;2023-06-24T00:54:06;34.79;31.12;38.41;;
66335;Laerm;53138;51.496;6.410;2023-06-24T00:54:16;34.73;30.41;38.53;;
66335;Laerm;53138;51.496;6.410;2023-06-24T00:54:27;33.58;30.67;38.69;;
66335;Laerm;53138;51.496;6.410;2023-06-24T00:54:43;31.80;29.32;34.42;;
66335;Laerm;53138;51.496;6.410;2023-06-24T00:54:54;29.88;28.38;31.49;;
66335;Laerm;53138;51.496;6.410;2023-06-24T00:55:06;30.62;28.45;35.18;;
66335;Laerm;53138;51.496;6.410;2023-06-24T00:55:16;30.92;28.82;33.63;;
66335;Laerm;53138;51.496;6.410;2023-06-24T00:55:27;30.93;29.27;34.17;;
66335;Laerm;53138;51.496;6.410;2023-06-24T00:55:39;31.03;29.40;34.93;;
66335;Laerm;53138;51.496;6.410;2023-06-24T00:55:49;30.87;29.30;34.89;;
66335;Laerm;53138;51.496;6.410;2023-06-24T00:55:59;31.06;28.95;33.56;;
66335;Laerm;53138;51.496;6.410;2023-06-24T00:56:12;32.01;29.57;35.10;;
66335;Laerm;53138;51.496;6.410;2023-06-24T00:56:31;34.62;30.79;39.75;;
66335;Laerm;53138;51.496;6.410;2023-06-24T00:56:41;35.14;31.21;40.24;;
66335;Laerm;53138;51.496;6.410;2023-06-24T00:56:52;40.85;35.07;46.79;;
66335;Laerm;53138;51.496;6.410;2023-06-24T00:57:05;36.30;31.03;43.24;;
66335;Laerm;53138;51.496;6.410;2023-06-24T00:57:15;31.07;28.97;33.53;;
66335;Laerm;53138;51.496;6.410;2023-06-24T00:57:27;31.58;29.26;35.34;;
66335;Laerm;53138;51.496;6.410;2023-06-24T00:57:39;33.50;30.87;36.36;;
66335;Laerm;53138;51.496;6.410;2023-06-24T00:57:50;35.24;31.86;39.32;;
66335;Laerm;53138;51.496;6.410;2023-06-24T00:58:01;34.47;31.68;38.49;;
66335;Laerm;53138;51.496;6.410;2023-06-24T00:58:12;33.11;30.22;36.95;;
66335;Laerm;53138;51.496;6.410;2023-06-24T00:58:26;32.87;30.12;36.58;;
66335;Laerm;53138;51.496;6.410;2023-06-24T00:58:37;31.71;29.78;34.30;;
66335;Laerm;53138;51.496;6.410;2023-06-24T00:58:49;30.26;28.49;32.52;;
66335;Laerm;53138;51.496;6.410;2023-06-24T00:59:00;29.58;28.35;31.26;;
66335;Laerm;53138;51.496;6.410;2023-06-24T00:59:15;29.32;28.06;32.10;;
66335;Laerm;53138;51.496;6.410;2023-06-24T00:59:26;30.96;28.10;36.31;;
66335;Laerm;53138;51.496;6.410;2023-06-24T00:59:39;31.08;28.48;34.24;;
66335;Laerm;53138;51.496;6.410;2023-06-24T00:59:50;30.52;28.63;32.86;;
66335;Laerm;53138;51.496;6.410;2023-06-24T01:00:03;32.69;29.81;36.04;;
66335;Laerm;53138;51.496;6.410;2023-06-24T01:00:19;33.79;28.92;39.19;;
66335;Laerm;53138;51.496;6.410;2023-06-24T01:00:30;31.11;28.98;35.39;;
66335;Laerm;53138;51.496;6.410;2023-06-24T01:00:43;30.64;28.92;33.09;;
66335;Laerm;53138;51.496;6.410;2023-06-24T01:00:55;30.89;29.03;33.48;;
66335;Laerm;53138;51.496;6.410;2023-06-24T01:01:07;30.04;27.81;32.45;;
66335;Laerm;53138;51.496;6.410;2023-06-24T01:01:19;29.05;27.74;31.35;;
66335;Laerm;53138;51.496;6.410;2023-06-24T01:01:30;29.08;28.15;30.75;;
66335;Laerm;53138;51.496;6.410;2023-06-24T01:01:43;29.59;28.26;30.77;;
66335;Laerm;53138;51.496;6.410;2023-06-24T01:01:55;35.83;29.26;45.93;;
66335;Laerm;53138;51.496;6.410;2023-06-24T01:02:05;41.47;34.86;48.70;;